Time;durP1;ratioP1;P1;durP2;ratioP2;P2;SDS_P1;SDS_P2;PMS_P1;PMS_P2;Temp;Humidity;BMP_temperature;BMP_pressure;BME280_temperature;BME280_humidity;BME280_pressure;Samples;Min_cycle;Max_cycle;Signal;HPM_P1;HPM_P2
2021/09/28 00:00:01;;;;;;;7.35;2.97;;;18.30;59.00;;;;;;20799111;28;81213;-72
2021/09/28 00:10:04;;;;;;;8.83;2.27;;;18.10;59.50;;;;;;20799334;28;81452;-72
2021/09/28 00:20:07;;;;;;;6.97;3.28;;;18.10;59.80;;;;;;20800127;27;81053;-72
2021/09/28 00:30:10;;;;;;;5.78;2.60;;;17.90;60.30;;;;;;20812313;28;80755;-73
2021/09/28 00:40:13;;;;;;;10.15;3.38;;;17.80;60.70;;;;;;20811424;28;82192;-74
2021/09/28 00:50:15;;;;;;;5.43;2.70;;;17.80;61.00;;;;;;20810440;27;79972;-74
2021/09/28 01:00:18;;;;;;;7.30;2.85;;;17.70;61.70;;;;;;20802666;27;80690;-72
2021/09/28 01:10:20;;;;;;;4.70;2.80;;;17.50;62.40;;;;;;20801459;28;80332;-72
2021/09/28 01:20:22;;;;;;;3.95;2.58;;;17.40;62.60;;;;;;20808052;28;81107;-72
2021/09/28 01:30:27;;;;;;;4.75;2.80;;;17.20;62.90;;;;;;20805114;28;81906;-72
2021/09/28 01:40:36;;;;;;;6.28;2.97;;;17.10;63.10;;;;;;20798513;28;80729;-72
2021/09/28 01:50:40;;;;;;;5.57;2.92;;;16.80;66.70;;;;;;20803627;28;82019;-72
2021/09/28 02:00:45;;;;;;;6.57;2.78;;;16.80;66.40;;;;;;20806496;28;80686;-72
2021/09/28 02:10:48;;;;;;;5.25;3.00;;;16.70;66.20;;;;;;20805107;28;80875;-72
2021/09/28 02:20:52;;;;;;;5.65;2.63;;;16.60;66.50;;;;;;20803694;28;81822;-72
2021/09/28 02:30:56;;;;;;;6.65;3.78;;;16.50;66.20;;;;;;20805424;28;80825;-72
2021/09/28 02:41:00;;;;;;;6.40;3.25;;;16.30;67.20;;;;;;20803297;28;81817;-73
2021/09/28 02:51:05;;;;;;;5.53;3.13;;;16.30;67.30;;;;;;20802037;28;81288;-72
2021/09/28 03:01:27;;;;;;;5.22;3.78;;;16.20;67.60;;;;;;20802292;28;80721;-71
2021/09/28 03:11:48;;;;;;;6.20;3.10;;;16.10;67.90;;;;;;20800038;28;82431;-72
2021/09/28 03:22:09;;;;;;;4.32;2.83;;;16.00;68.10;;;;;;20800846;28;80173;-72
2021/09/28 03:32:29;;;;;;;8.65;3.60;;;15.90;68.80;;;;;;20799981;28;80813;-71
2021/09/28 03:42:40;;;;;;;6.15;3.03;;;15.90;69.70;;;;;;20801100;28;81032;-71
2021/09/28 03:52:54;;;;;;;7.30;3.20;;;15.90;70.30;;;;;;20799661;28;81658;-75
2021/09/28 04:03:07;;;;;;;6.07;3.60;;;15.80;70.40;;;;;;20813585;28;80811;-72
2021/09/28 04:13:16;;;;;;;5.28;3.35;;;15.80;70.60;;;;;;20812039;28;80999;-74
2021/09/28 04:23:26;;;;;;;4.93;2.97;;;15.70;70.40;;;;;;20805711;28;80097;-72
2021/09/28 04:33:36;;;;;;;6.93;4.07;;;15.60;70.30;;;;;;20771011;28;81590;-71
2021/09/28 04:43:50;;;;;;;8.43;4.05;;;15.60;70.40;;;;;;20728992;28;80729;-71
2021/09/28 04:54:12;;;;;;;8.18;3.17;;;15.60;70.30;;;;;;20719961;28;80336;-72
2021/09/28 05:04:23;;;;;;;7.95;3.70;;;15.50;70.30;;;;;;20721055;28;80848;-73
2021/09/28 05:14:30;;;;;;;6.97;3.42;;;15.50;70.50;;;;;;20725564;28;80712;-71
2021/09/28 05:24:35;;;;;;;6.22;3.58;;;15.40;70.60;;;;;;20726290;28;80638;-72
2021/09/28 05:34:40;;;;;;;8.13;4.35;;;15.30;72.00;;;;;;20722816;28;81186;-70
2021/09/28 05:44:49;;;;;;;11.32;4.57;;;15.30;72.10;;;;;;20707497;28;82289;-70
2021/09/28 05:54:53;;;;;;;11.20;4.22;;;15.30;72.40;;;;;;20712267;28;80774;-72
2021/09/28 06:04:55;;;;;;;8.87;4.73;;;15.30;72.30;;;;;;20709381;28;81893;-72
2021/09/28 06:14:57;;;;;;;14.82;5.72;;;15.20;72.50;;;;;;20717225;28;80705;-73
2021/09/28 06:24:59;;;;;;;14.50;5.23;;;15.20;72.40;;;;;;20715672;28;80582;-72
2021/09/28 06:35:02;;;;;;;13.40;5.03;;;15.40;72.20;;;;;;20714947;28;81596;-70
2021/09/28 06:45:06;;;;;;;16.73;5.85;;;15.50;71.40;;;;;;20708940;28;81633;-71
2021/09/28 06:55:09;;;;;;;13.23;5.43;;;15.80;70.60;;;;;;20707022;28;81740;-71
2021/09/28 07:05:14;;;;;;;14.20;5.93;;;16.00;69.70;;;;;;20707816;28;81133;-72
2021/09/28 07:15:18;;;;;;;11.63;5.82;;;16.30;69.00;;;;;;20711336;28;81035;-71
2021/09/28 07:25:21;;;;;;;15.73;7.17;;;16.60;68.10;;;;;;20709351;28;80972;-72
2021/09/28 07:35:25;;;;;;;20.63;7.78;;;16.70;67.50;;;;;;20709611;28;81156;-72
2021/09/28 07:45:29;;;;;;;34.97;9.65;;;16.90;67.20;;;;;;20709471;28;80968;-73
2021/09/28 07:55:35;;;;;;;29.45;7.38;;;17.40;67.10;;;;;;20709690;28;81065;-74
2021/09/28 08:05:38;;;;;;;30.70;9.13;;;17.70;65.60;;;;;;20708419;28;80911;-73
2021/09/28 08:15:41;;;;;;;27.77;8.50;;;17.90;64.60;;;;;;20708701;28;81437;-73
2021/09/28 08:25:49;;;;;;;17.90;8.13;;;18.40;63.80;;;;;;20705289;28;82044;-72
2021/09/28 08:35:51;;;;;;;17.88;7.75;;;19.00;62.50;;;;;;20704122;28;81210;-72
2021/09/28 08:45:56;;;;;;;14.30;6.18;;;19.90;60.20;;;;;;20714014;28;82009;-70
2021/09/28 08:56:00;;;;;;;10.90;4.90;;;20.20;59.80;;;;;;20710094;28;81697;-73
2021/09/28 09:06:09;;;;;;;12.30;5.50;;;20.90;57.10;;;;;;20715454;28;82247;-70
2021/09/28 09:16:15;;;;;;;11.80;5.85;;;21.80;53.70;;;;;;20711294;28;81934;-72
2021/09/28 09:26:27;;;;;;;21.10;5.82;;;22.90;50.40;;;;;;20714763;28;80774;-71
2021/09/28 09:36:30;;;;;;;24.25;5.90;;;23.60;47.80;;;;;;20713914;28;81766;-72
2021/09/28 09:47:01;;;;;;;20.98;6.70;;;24.40;46.00;;;;;;20716208;28;80733;-71
2021/09/28 09:57:06;;;;;;;15.25;5.15;;;25.20;44.50;;;;;;20709279;28;82273;-71
2021/09/28 10:07:13;;;;;;;7.20;3.75;;;27.00;40.30;;;;;;20716327;28;80938;-71
2021/09/28 10:17:29;;;;;;;12.13;4.68;;;28.80;36.30;;;;;;20714122;28;81183;-71
2021/09/28 10:27:32;;;;;;;14.48;4.80;;;29.40;36.00;;;;;;20716153;28;81487;-71
2021/09/28 10:37:50;;;;;;;16.35;5.07;;;31.90;32.00;;;;;;20712899;28;80983;-72
2021/09/28 10:47:57;;;;;;;14.82;4.22;;;34.80;28.40;;;;;;20708610;28;81628;-72
2021/09/28 10:58:03;;;;;;;8.52;3.28;;;37.00;25.30;;;;;;20711633;28;81897;-72
2021/09/28 11:08:10;;;;;;;10.45;2.70;;;36.10;25.80;;;;;;20711268;28;81982;-70
2021/09/28 11:18:15;;;;;;;4.72;2.67;;;37.00;24.50;;;;;;20708114;28;81612;-70
2021/09/28 11:28:19;;;;;;;7.40;2.92;;;33.90;27.50;;;;;;20710757;28;80886;-74
2021/09/28 11:38:28;;;;;;;8.80;2.90;;;38.00;24.30;;;;;;20717981;28;80428;-72
2021/09/28 11:48:43;;;;;;;11.00;3.05;;;37.20;23.90;;;;;;20712296;28;81921;-73
2021/09/28 11:58:48;;;;;;;6.22;2.50;;;38.00;23.30;;;;;;20705527;28;81368;-72
2021/09/28 12:08:50;;;;;;;8.65;2.92;;;42.40;18.70;;;;;;20714640;28;81011;-71
2021/09/28 12:19:05;;;;;;;6.28;2.58;;;39.70;21.00;;;;;;20715842;28;80809;-71
2021/09/28 12:29:17;;;;;;;5.95;2.40;;;36.60;23.10;;;;;;20724822;28;80961;-71
2021/09/28 12:39:27;;;;;;;5.32;2.28;;;35.00;25.00;;;;;;20719992;28;82012;-71
2021/09/28 12:49:33;;;;;;;4.03;2.55;;;33.20;26.80;;;;;;20723814;28;83594;-73
2021/09/28 12:59:35;;;;;;;6.28;2.50;;;34.50;25.50;;;;;;20728098;28;81684;-71
2021/09/28 13:09:37;;;;;;;5.35;2.78;;;34.20;25.90;;;;;;20778340;28;81592;-71
2021/09/28 13:19:40;;;;;;;4.80;2.67;;;36.20;23.60;;;;;;20734176;28;80572;-70
2021/09/28 13:29:43;;;;;;;8.90;2.72;;;32.40;27.90;;;;;;20741018;28;80961;-70
2021/09/28 13:39:45;;;;;;;5.28;2.42;;;31.30;29.20;;;;;;20802332;28;81351;-71
2021/09/28 13:49:49;;;;;;;6.65;3.17;;;30.30;29.40;;;;;;20808264;28;80723;-72
2021/09/28 13:59:52;;;;;;;5.35;2.78;;;30.20;30.20;;;;;;20807815;28;80677;-72
2021/09/28 14:09:54;;;;;;;6.90;2.75;;;33.60;26.20;;;;;;20799564;28;81865;-69
2021/09/28 14:19:56;;;;;;;6.82;3.20;;;32.20;28.80;;;;;;20776969;28;81909;-62
2021/09/28 14:29:59;;;;;;;5.20;2.55;;;32.20;28.30;;;;;;20753974;28;81840;-62
2021/09/28 14:40:01;;;;;;;7.50;2.60;;;31.80;28.00;;;;;;20745041;28;82038;-63
2021/09/28 14:50:04;;;;;;;2.90;2.22;;;31.60;27.60;;;;;;20759615;27;80970;-62
2021/09/28 15:00:07;;;;;;;2.95;2.55;;;32.90;25.50;;;;;;20686809;28;81166;-65
2021/09/28 15:10:10;;;;;;;6.45;2.72;;;33.40;24.30;;;;;;20728668;28;80690;-61
2021/09/28 15:20:13;;;;;;;3.50;2.58;;;32.30;24.90;;;;;;20799324;28;80521;-66
2021/09/28 15:30:18;;;;;;;3.00;2.10;;;37.00;20.70;;;;;;20796597;28;80236;-67
2021/09/28 15:40:21;;;;;;;5.25;2.20;;;35.40;21.70;;;;;;20798711;28;81807;-62
2021/09/28 15:50:23;;;;;;;2.65;2.08;;;35.30;21.60;;;;;;20804851;28;82224;-63
2021/09/28 16:00:24;;;;;;;3.67;1.80;;;38.20;19.20;;;;;;20816556;28;80075;-61
2021/09/28 16:10:27;;;;;;;3.28;1.83;;;34.20;22.20;;;;;;20814844;28;81655;-65
2021/09/28 16:20:30;;;;;;;3.85;1.50;;;34.30;21.90;;;;;;20847151;27;80792;-63
2021/09/28 16:30:32;;;;;;;3.17;1.77;;;32.60;22.40;;;;;;20796201;28;81915;-65
2021/09/28 16:40:36;;;;;;;3.78;1.95;;;29.60;23.80;;;;;;20774495;28;81803;-61
2021/09/28 16:50:38;;;;;;;3.45;2.05;;;28.30;25.50;;;;;;20760435;28;81712;-63
2021/09/28 17:00:40;;;;;;;2.80;1.80;;;27.60;26.90;;;;;;20793910;28;80767;-64
2021/09/28 17:10:42;;;;;;;4.55;2.20;;;27.00;28.80;;;;;;20783756;28;80978;-61
2021/09/28 17:20:44;;;;;;;5.03;2.42;;;26.50;29.80;;;;;;20695921;28;80244;-62
2021/09/28 17:30:46;;;;;;;3.92;2.40;;;26.10;30.50;;;;;;20679847;28;80695;-59
2021/09/28 17:40:51;;;;;;;3.25;2.10;;;25.80;31.10;;;;;;20698377;28;81991;-62
2021/09/28 17:50:53;;;;;;;2.03;1.33;;;25.40;31.10;;;;;;20705479;28;81811;-60
2021/09/28 18:00:54;;;;;;;3.20;1.20;;;25.10;30.60;;;;;;20729112;28;80446;-70
2021/09/28 18:10:56;;;;;;;2.65;1.73;;;24.80;30.00;;;;;;20716146;28;80986;-70
2021/09/28 18:20:58;;;;;;;4.03;1.60;;;24.40;31.20;;;;;;20675380;28;80421;-70
2021/09/28 18:31:09;;;;;;;5.23;2.57;;;23.90;32.70;;;;;;20702291;28;82088;-72
2021/09/28 18:41:16;;;;;;;5.07;1.95;;;23.50;33.50;;;;;;20715522;28;81691;-69
2021/09/28 18:51:18;;;;;;;7.47;2.35;;;23.20;34.30;;;;;;20704259;28;82166;-73
2021/09/28 19:01:24;;;;;;;5.88;2.40;;;22.90;35.00;;;;;;20714769;28;82020;-70
2021/09/28 19:11:32;;;;;;;2.58;1.70;;;22.90;35.10;;;;;;20703133;28;81362;-71
2021/09/28 19:21:50;;;;;;;3.78;1.75;;;22.90;33.20;;;;;;20714677;28;81797;-71
2021/09/28 19:31:55;;;;;;;4.00;2.00;;;23.00;33.10;;;;;;20706163;28;81437;-74
2021/09/28 19:42:00;;;;;;;5.65;2.38;;;22.90;33.30;;;;;;20706556;28;81352;-72
2021/09/28 19:52:08;;;;;;;4.20;1.80;;;22.70;33.80;;;;;;20712848;28;81241;-72
2021/09/28 20:43:27;;;;;;;4.65;2.47;;;21.70;37.70;;;;;;20715111;28;82165;-71
2021/09/28 20:53:30;;;;;;;5.53;2.72;;;21.50;38.80;;;;;;20712018;28;80539;-71
2021/09/28 21:03:32;;;;;;;10.05;4.45;;;21.40;38.80;;;;;;20719425;28;82886;-71
2021/09/28 21:13:36;;;;;;;3.88;1.90;;;21.20;39.90;;;;;;20722544;28;81662;-70
2021/09/28 21:23:38;;;;;;;4.82;1.60;;;21.00;40.30;;;;;;20726557;28;79894;-73
2021/09/28 21:33:46;;;;;;;;;;;20.80;41.30;;;;;;20731023;28;80817;-71
2021/09/28 21:43:48;;;;;;;3.95;1.95;;;20.60;42.00;;;;;;20815969;28;82052;-73
2021/09/28 21:53:50;;;;;;;4.22;2.10;;;20.50;43.20;;;;;;20807845;28;79796;-74
2021/09/28 22:03:53;;;;;;;4.85;2.17;;;20.40;44.40;;;;;;20806868;28;80467;-72
2021/09/28 22:13:56;;;;;;;4.30;2.10;;;20.30;45.30;;;;;;20805952;28;80964;-73
2021/09/28 22:23:58;;;;;;;6.00;2.00;;;20.20;46.70;;;;;;20805766;28;80634;-71
2021/09/28 22:34:01;;;;;;;6.07;2.05;;;20.00;47.90;;;;;;20799110;28;80224;-71
2021/09/28 22:44:03;;;;;;;7.40;2.10;;;19.80;48.90;;;;;;20764067;28;80880;-72
2021/09/28 22:54:05;;;;;;;;;;;19.70;50.00;;;;;;20794649;28;80714;-70
2021/09/28 23:04:07;;;;;;;8.05;2.78;;;19.50;50.60;;;;;;20823474;28;80643;-72
2021/09/28 23:14:10;;;;;;;5.10;2.10;;;19.50;51.10;;;;;;20757767;27;79808;-71
2021/09/28 23:24:11;;;;;;;;;;;19.50;52.20;;;;;;20775964;28;81629;-70
2021/09/28 23:34:14;;;;;;;7.22;2.92;;;19.30;52.40;;;;;;20809528;28;80911;-71
2021/09/28 23:44:16;;;;;;;6.97;2.75;;;19.30;53.30;;;;;;20779454;28;80018;-69
2021/09/28 23:54:21;;;;;;;4.57;1.92;;;19.20;54.20;;;;;;20799100;28;81814;-69
